createdAt,value
2023-01-08T00:01:17.014Z,62.67
2023-01-08T00:03:44.232Z,58.47
2023-01-08T00:06:14.169Z,57.37
2023-01-08T00:08:41.534Z,54.50
2023-01-08T00:11:08.642Z,61.70
2023-01-08T00:13:35.697Z,62.67
2023-01-08T00:16:08.098Z,53.50
2023-01-08T00:18:35.038Z,56.20
2023-01-08T00:21:05.206Z,54.87
2023-01-08T00:23:33.166Z,51.57
2023-01-08T00:26:05.327Z,55.63
2023-01-08T00:28:32.418Z,51.23
2023-01-08T00:31:00.304Z,49.87
2023-01-08T00:33:28.422Z,48.80
2023-01-08T00:35:55.240Z,47.27
2023-01-08T00:38:26.857Z,52.13
2023-01-08T00:40:57.353Z,49.33
2023-01-08T00:43:24.279Z,53.93
2023-01-08T00:45:54.173Z,49.20
2023-01-08T00:48:25.219Z,50.10
2023-01-08T00:50:53.609Z,46.70
2023-01-08T00:53:21.609Z,45.67
2023-01-08T00:55:48.602Z,47.00
2023-01-08T00:58:15.695Z,49.23
2023-01-08T01:00:42.755Z,44.20
2023-01-08T01:03:12.164Z,45.57
2023-01-08T01:05:39.101Z,44.87
2023-01-08T01:08:06.078Z,43.97
2023-01-08T01:10:33.001Z,46.57
2023-01-08T01:12:59.842Z,45.07
2023-01-08T01:15:26.823Z,45.83
2023-01-08T01:17:53.723Z,43.03
2023-01-08T01:20:20.800Z,42.90
2023-01-08T01:22:47.791Z,46.07
2023-01-08T01:25:14.823Z,49.87
2023-01-08T01:27:41.871Z,43.57
2023-01-08T01:30:09.717Z,42.00
2023-01-08T01:32:36.778Z,45.20
2023-01-08T01:35:03.973Z,43.73
2023-01-08T01:37:30.943Z,46.77
2023-01-08T01:39:58.121Z,47.13
2023-01-08T01:42:40.479Z,45.67
2023-01-08T01:45:27.931Z,41.57
2023-01-08T01:47:59.788Z,46.63
2023-01-08T01:50:33.247Z,45.77
2023-01-08T01:53:00.102Z,45.27
2023-01-08T01:55:27.983Z,45.93
2023-01-08T01:58:08.073Z,47.57
2023-01-08T02:00:35.860Z,45.97
2023-01-08T02:03:05.241Z,48.47
2023-01-08T02:05:43.969Z,46.50
2023-01-08T02:08:15.276Z,48.73
2023-01-08T02:10:58.506Z,44.77
2023-01-08T02:13:33.469Z,40.63
2023-01-08T02:16:00.300Z,39.67
2023-01-08T02:18:34.784Z,38.87
2023-01-08T02:21:10.384Z,39.97
2023-01-08T02:23:58.654Z,38.07
2023-01-08T02:26:35.140Z,40.90
2023-01-08T02:29:09.982Z,36.93
2023-01-08T02:31:39.963Z,36.53
2023-01-08T02:34:07.240Z,31.83
2023-01-08T02:36:35.773Z,31.57
2023-01-08T02:39:35.423Z,30.40
2023-01-08T02:42:11.503Z,30.90
2023-01-08T02:45:15.870Z,27.57
2023-01-08T02:47:59.229Z,27.50
2023-01-08T02:50:49.259Z,26.17
2023-01-08T02:53:23.395Z,27.50
2023-01-08T02:55:54.208Z,25.87
2023-01-08T02:58:23.472Z,22.77
2023-01-08T03:00:51.605Z,24.27
2023-01-08T03:03:27.592Z,27.67
2023-01-08T03:05:58.928Z,25.80
2023-01-08T03:08:27.102Z,25.97
2023-01-08T03:11:00.002Z,23.73
2023-01-08T03:13:41.936Z,27.23
2023-01-08T03:16:18.091Z,26.30
2023-01-08T03:19:03.009Z,28.07
2023-01-08T03:21:31.334Z,24.17
2023-01-08T03:23:58.798Z,23.27
2023-01-08T03:26:27.375Z,25.10
2023-01-08T03:28:56.585Z,24.03
2023-01-08T03:31:25.931Z,24.53
2023-01-08T03:33:53.909Z,22.50
2023-01-08T03:36:25.050Z,23.80
2023-01-08T03:38:59.415Z,22.57
2023-01-08T03:41:29.765Z,25.13
2023-01-08T03:43:57.138Z,25.00
2023-01-08T03:46:30.704Z,22.27
2023-01-08T03:48:59.839Z,26.40
2023-01-08T03:51:27.338Z,25.10
2023-01-08T03:53:58.797Z,24.57
2023-01-08T03:56:26.096Z,23.80
2023-01-08T03:58:53.022Z,25.27
2023-01-08T04:01:20.028Z,23.87
2023-01-08T04:03:47.423Z,25.10
2023-01-08T04:06:14.247Z,24.87
2023-01-08T04:08:41.154Z,23.80
2023-01-08T04:11:08.165Z,22.73
2023-01-08T04:13:35.084Z,22.83
2023-01-08T04:16:02.020Z,23.90
2023-01-08T04:18:28.985Z,19.17
2023-01-08T04:20:57.785Z,22.13
2023-01-08T04:23:24.765Z,21.23
2023-01-08T04:25:51.948Z,19.77
2023-01-08T04:28:19.408Z,20.13
2023-01-08T04:30:46.245Z,19.47
2023-01-08T04:33:13.435Z,22.43
2023-01-08T04:35:40.358Z,22.43
2023-01-08T04:38:07.268Z,20.07
2023-01-08T04:40:34.825Z,23.37
2023-01-08T04:43:01.725Z,20.40
2023-01-08T04:45:28.605Z,22.60
2023-01-08T04:48:00.719Z,21.47
2023-01-08T04:50:27.908Z,24.63
2023-01-08T04:52:54.832Z,22.27
2023-01-08T04:55:21.818Z,23.47
2023-01-08T04:57:48.737Z,23.77
2023-01-08T05:00:16.076Z,21.93
2023-01-08T05:02:43.137Z,25.83
2023-01-08T05:05:10.312Z,24.60
2023-01-08T05:07:37.198Z,20.17
2023-01-08T05:10:05.172Z,18.63
2023-01-08T05:12:32.128Z,21.43
2023-01-08T05:14:58.997Z,21.90
2023-01-08T05:17:25.889Z,19.20
2023-01-08T05:19:52.763Z,18.23
2023-01-08T05:22:19.634Z,20.77
2023-01-08T05:24:46.519Z,18.37
2023-01-08T05:27:13.461Z,20.30
2023-01-08T05:29:40.281Z,19.67
2023-01-08T05:32:15.779Z,18.37
2023-01-08T05:34:43.482Z,19.17
2023-01-08T05:37:10.544Z,19.57
2023-01-08T05:39:38.003Z,20.43
2023-01-08T05:42:05.078Z,16.63
2023-01-08T05:44:31.935Z,17.10
2023-01-08T05:46:58.849Z,15.90
2023-01-08T05:49:25.822Z,20.17
2023-01-08T05:51:52.675Z,19.03
2023-01-08T05:54:19.553Z,19.30
2023-01-08T05:56:46.430Z,18.13
2023-01-08T05:59:14.372Z,16.90
2023-01-08T06:01:41.353Z,18.60
2023-01-08T06:04:08.586Z,18.77
2023-01-08T06:06:35.896Z,18.63
2023-01-08T06:09:02.801Z,20.33
2023-01-08T06:11:29.628Z,18.90
2023-01-08T06:13:56.655Z,19.30
2023-01-08T06:16:23.597Z,17.47
2023-01-08T06:18:50.524Z,18.50
2023-01-08T06:21:17.480Z,19.07
2023-01-08T06:23:44.408Z,18.33
2023-01-08T06:26:11.350Z,18.43
2023-01-08T06:28:38.176Z,18.83
2023-01-08T06:31:05.266Z,19.97
2023-01-08T06:33:32.567Z,18.83
2023-01-08T06:36:04.628Z,16.87
2023-01-08T06:38:33.542Z,17.50
2023-01-08T06:41:05.030Z,15.10
2023-01-08T06:43:33.077Z,15.37
2023-01-08T06:46:09.540Z,17.37
2023-01-08T06:48:37.172Z,17.87
2023-01-08T06:51:05.284Z,19.97
2023-01-08T06:53:32.626Z,16.43
2023-01-08T06:55:59.756Z,18.17
2023-01-08T06:58:27.719Z,20.03
2023-01-08T07:00:54.889Z,17.60
2023-01-08T07:03:21.990Z,16.97
2023-01-08T07:05:50.776Z,16.80
2023-01-08T07:08:18.558Z,16.47
2023-01-08T07:10:45.880Z,17.20
2023-01-08T07:13:13.206Z,17.57
2023-01-08T07:15:40.907Z,19.30
2023-01-08T07:18:12.264Z,19.10
2023-01-08T07:20:39.506Z,17.47
2023-01-08T07:23:09.783Z,17.07
2023-01-08T07:25:36.787Z,18.50
2023-01-08T07:28:03.677Z,20.60
2023-01-08T07:30:30.935Z,18.83
2023-01-08T07:33:01.954Z,17.63
2023-01-08T07:35:29.485Z,21.77
2023-01-08T07:37:56.807Z,20.47
2023-01-08T07:40:24.254Z,18.00
2023-01-08T07:43:01.481Z,21.50
2023-01-08T07:45:29.697Z,18.87
2023-01-08T07:48:00.185Z,19.23
2023-01-08T07:50:27.956Z,19.93
2023-01-08T07:52:58.666Z,18.80
2023-01-08T07:55:25.621Z,17.40
2023-01-08T07:57:52.525Z,20.87
2023-01-08T08:00:19.709Z,18.07
2023-01-08T08:02:46.851Z,21.47
2023-01-08T08:05:14.098Z,19.93
2023-01-08T08:07:41.028Z,19.70
2023-01-08T08:10:08.525Z,22.27
2023-01-08T08:12:35.441Z,16.20
2023-01-08T08:15:02.512Z,20.07
2023-01-08T08:17:29.427Z,21.87
2023-01-08T08:19:56.353Z,22.03
2023-01-08T08:22:23.239Z,20.63
2023-01-08T08:24:50.101Z,18.97
2023-01-08T08:27:17.090Z,18.37
2023-01-08T08:29:44.037Z,21.73
2023-01-08T08:32:10.943Z,21.57
2023-01-08T08:34:37.897Z,20.90
2023-01-08T08:37:04.826Z,20.23
2023-01-08T08:39:31.760Z,17.53
2023-01-08T08:41:58.736Z,21.23
2023-01-08T08:44:25.636Z,18.77
2023-01-08T08:46:52.644Z,19.10
2023-01-08T08:49:19.724Z,22.10
2023-01-08T08:51:46.750Z,19.93
2023-01-08T08:54:16.576Z,20.93
2023-01-08T08:56:43.450Z,18.70
2023-01-08T08:59:13.353Z,19.97
2023-01-08T09:01:42.575Z,19.80
2023-01-08T09:04:09.552Z,20.13
2023-01-08T09:06:36.564Z,19.20
2023-01-08T09:09:03.785Z,23.73
2023-01-08T09:11:31.941Z,19.97
2023-01-08T09:13:59.069Z,19.03
2023-01-08T09:16:26.067Z,20.80
2023-01-08T09:18:53.124Z,21.40
2023-01-08T09:21:20.024Z,20.73
2023-01-08T09:23:49.342Z,20.97
2023-01-08T09:26:16.363Z,19.30
2023-01-08T09:28:43.522Z,22.80
2023-01-08T09:31:10.564Z,18.30
2023-01-08T09:33:37.569Z,18.83
2023-01-08T09:36:04.697Z,18.97
2023-01-08T09:38:31.628Z,19.47
2023-01-08T09:41:06.251Z,18.13
2023-01-08T09:43:36.569Z,19.67
2023-01-08T09:46:06.213Z,19.93
2023-01-08T09:48:39.293Z,20.13
2023-01-08T09:51:14.407Z,19.07
2023-01-08T09:53:43.293Z,19.80
2023-01-08T09:56:18.565Z,17.60
2023-01-08T09:58:53.071Z,18.20
2023-01-08T10:01:41.263Z,20.60
2023-01-08T10:04:14.587Z,17.43
2023-01-08T10:06:46.964Z,17.57
2023-01-08T10:09:15.188Z,18.93
2023-01-08T10:11:50.748Z,19.13
2023-01-08T10:14:25.600Z,19.63
2023-01-08T10:17:14.812Z,21.50
2023-01-08T10:19:41.834Z,18.13
2023-01-08T10:22:32.934Z,18.60
2023-01-08T10:25:09.994Z,19.90
2023-01-08T10:27:50.129Z,19.80
2023-01-08T10:30:21.062Z,19.87
2023-01-08T10:32:56.209Z,19.20
2023-01-08T10:35:33.278Z,19.93
2023-01-08T10:38:00.264Z,23.03
2023-01-08T10:40:31.537Z,19.70
2023-01-08T10:43:06.637Z,20.63
2023-01-08T10:45:34.162Z,23.73
2023-01-08T10:48:04.949Z,20.47
2023-01-08T10:50:33.862Z,21.83
2023-01-08T10:53:05.759Z,24.30
2023-01-08T10:55:37.555Z,21.47
2023-01-08T10:58:10.659Z,22.87
2023-01-08T11:00:37.992Z,24.30
2023-01-08T11:03:07.773Z,23.73
2023-01-08T11:05:43.129Z,25.07
2023-01-08T11:08:19.512Z,23.53
2023-01-08T11:10:56.597Z,23.60
2023-01-08T11:13:24.359Z,24.30
2023-01-08T11:16:13.001Z,27.87
2023-01-08T11:18:48.714Z,23.80
2023-01-08T11:21:26.271Z,26.27
2023-01-08T11:24:12.839Z,25.87
2023-01-08T11:26:43.652Z,23.93
2023-01-08T11:29:23.506Z,25.83
2023-01-08T11:32:04.939Z,24.60
2023-01-08T11:35:01.038Z,29.40
2023-01-08T11:37:32.006Z,28.10
2023-01-08T11:39:59.105Z,26.40
2023-01-08T11:42:53.839Z,26.63
2023-01-08T11:45:39.088Z,24.93
2023-01-08T11:48:08.907Z,23.73
2023-01-08T11:50:38.776Z,28.83
2023-01-08T11:53:37.469Z,24.37
2023-01-08T11:56:04.390Z,26.57
2023-01-08T11:58:54.214Z,28.43
2023-01-08T12:01:32.544Z,28.53
2023-01-08T12:04:42.658Z,27.40
2023-01-08T12:07:57.066Z,28.23
2023-01-08T12:10:45.880Z,27.30
2023-01-08T12:16:25.803Z,32.33
2023-01-08T12:18:58.560Z,31.17
2023-01-08T12:21:47.531Z,29.13
2023-01-08T12:24:37.993Z,34.17
2023-01-08T12:27:14.136Z,29.83
2023-01-08T12:29:53.674Z,30.20
2023-01-08T12:32:47.973Z,32.20
2023-01-08T12:36:22.172Z,29.30
2023-01-08T12:43:01.019Z,31.67
2023-01-08T12:45:42.021Z,31.17
2023-01-08T12:48:18.604Z,30.10
2023-01-08T12:50:51.619Z,29.50
2023-01-08T12:53:24.481Z,29.20
2023-01-08T12:56:19.795Z,28.07
2023-01-08T12:59:05.048Z,28.57
2023-01-08T13:04:50.907Z,27.47
2023-01-08T13:07:27.851Z,32.10
2023-01-08T13:10:03.265Z,31.10
2023-01-08T13:12:40.130Z,29.20
2023-01-08T13:15:22.489Z,29.77
2023-01-08T13:17:57.356Z,28.63
2023-01-08T13:20:29.524Z,30.37
2023-01-08T13:23:02.127Z,32.47
2023-01-08T13:25:35.071Z,31.33
2023-01-08T13:28:18.460Z,29.43
2023-01-08T13:30:49.164Z,31.13
2023-01-08T13:33:38.283Z,32.97
2023-01-08T13:36:22.357Z,30.00
2023-01-08T13:39:18.653Z,31.00
2023-01-08T13:42:21.173Z,33.27
2023-01-08T13:44:54.735Z,31.50
2023-01-08T13:47:36.554Z,31.47
2023-01-08T13:50:18.091Z,34.67
2023-01-08T13:52:48.977Z,37.93
2023-01-08T13:55:38.597Z,34.33
2023-01-08T13:58:13.386Z,34.20
2023-01-08T14:00:43.314Z,34.17
2023-01-08T14:03:46.594Z,38.93
2023-01-08T14:06:18.852Z,32.93
2023-01-08T14:08:55.509Z,33.97
2023-01-08T14:11:43.138Z,35.43
2023-01-08T14:14:18.678Z,33.10
2023-01-08T14:16:47.701Z,36.37
2023-01-08T14:19:19.478Z,38.83
2023-01-08T14:21:54.882Z,37.53
2023-01-08T14:24:25.200Z,40.90
2023-01-08T14:26:57.374Z,37.80
2023-01-08T14:29:33.027Z,39.27
2023-01-08T14:32:01.174Z,35.23
2023-01-08T14:34:30.972Z,38.63
2023-01-08T14:36:58.296Z,39.83
2023-01-08T14:39:33.090Z,37.60
2023-01-08T14:42:32.923Z,36.53
2023-01-08T14:45:14.911Z,35.20
2023-01-08T14:47:48.796Z,36.17
2023-01-08T14:50:29.340Z,39.87
2023-01-08T14:53:15.346Z,36.17
2023-01-08T14:55:45.465Z,34.63
2023-01-08T14:58:23.432Z,32.93
2023-01-08T15:01:02.944Z,35.03
2023-01-08T15:03:36.798Z,37.17
2023-01-08T15:06:05.065Z,37.83
2023-01-08T15:08:43.616Z,36.07
2023-01-08T15:11:19.657Z,38.53
2023-01-08T15:13:48.437Z,39.03
2023-01-08T15:16:29.716Z,37.20
2023-01-08T15:19:11.776Z,37.57
2023-01-08T15:21:39.633Z,39.90
2023-01-08T15:24:07.712Z,38.17
2023-01-08T15:26:34.727Z,37.33
2023-01-08T15:29:06.313Z,37.53
2023-01-08T15:31:56.118Z,34.03
2023-01-08T15:34:23.147Z,37.13
2023-01-08T15:36:50.053Z,39.17
2023-01-08T15:39:17.001Z,38.50
2023-01-08T15:42:02.289Z,36.17
2023-01-08T15:44:29.129Z,37.27
2023-01-08T15:46:56.094Z,37.07
2023-01-08T15:49:22.986Z,35.17
2023-01-08T15:51:51.992Z,37.50
2023-01-08T15:54:20.732Z,40.03
2023-01-08T15:56:47.882Z,38.77
2023-01-08T15:59:14.716Z,38.53
2023-01-08T16:01:41.848Z,34.77
2023-01-08T16:04:08.885Z,35.07
2023-01-08T16:06:36.400Z,35.33
2023-01-08T16:09:03.647Z,33.37
2023-01-08T16:11:30.574Z,35.77
2023-01-08T16:13:57.736Z,33.73
2023-01-08T16:16:24.770Z,36.50
2023-01-08T16:18:52.768Z,37.70
2023-01-08T16:21:19.741Z,36.47
2023-01-08T16:23:46.684Z,34.00
2023-01-08T16:26:16.203Z,38.70
2023-01-08T16:28:43.264Z,36.77
2023-01-08T16:31:10.972Z,36.73
2023-01-08T16:33:38.339Z,39.80
2023-01-08T16:36:09.187Z,38.50
2023-01-08T16:38:36.744Z,36.40
2023-01-08T16:41:05.207Z,37.03
2023-01-08T16:43:40.227Z,37.97
2023-01-08T16:46:18.010Z,39.93
2023-01-08T16:48:46.843Z,38.47
2023-01-08T16:51:14.983Z,40.53
2023-01-08T16:53:42.341Z,35.47
2023-01-08T16:56:10.041Z,42.30
2023-01-08T16:58:39.476Z,37.43
2023-01-08T17:01:10.610Z,34.83
2023-01-08T17:03:37.996Z,38.07
2023-01-08T17:06:12.710Z,37.57
2023-01-08T17:08:41.406Z,34.07
2023-01-08T17:11:13.919Z,36.83
2023-01-08T17:13:41.145Z,37.40
2023-01-08T17:16:14.042Z,37.10
2023-01-08T17:18:41.347Z,40.43
2023-01-08T17:21:10.111Z,37.03
2023-01-08T17:23:40.351Z,34.23
2023-01-08T17:26:13.985Z,41.77
2023-01-08T17:28:42.253Z,36.97
2023-01-08T17:31:18.359Z,35.00
2023-01-08T17:33:54.630Z,37.33
2023-01-08T17:36:26.620Z,36.07
2023-01-08T17:39:01.050Z,37.13
2023-01-08T17:42:04.929Z,34.90
2023-01-08T17:45:09.295Z,39.53
2023-01-08T17:47:43.060Z,38.53
2023-01-08T17:50:23.423Z,36.60
2023-01-08T17:52:52.839Z,38.37
2023-01-08T17:56:32.827Z,41.47
2023-01-08T18:02:36.595Z,39.80
2023-01-08T18:05:20.612Z,42.17
2023-01-08T18:07:54.065Z,38.67
2023-01-08T18:10:28.188Z,41.63
2023-01-08T18:12:55.116Z,38.43
2023-01-08T18:15:25.265Z,40.97
2023-01-08T18:18:14.300Z,41.40
2023-01-08T18:21:27.829Z,41.57
2023-01-08T18:24:38.459Z,38.23
2023-01-08T18:27:07.793Z,41.47
2023-01-08T18:29:34.799Z,40.03
2023-01-08T18:32:04.144Z,39.90
2023-01-08T18:34:54.444Z,42.13
2023-01-08T18:37:34.411Z,39.77
2023-01-08T18:40:04.594Z,39.97
2023-01-08T18:42:59.612Z,37.97
2023-01-08T18:45:35.439Z,38.20
2023-01-08T18:48:02.826Z,43.60
2023-01-08T18:50:30.163Z,42.10
2023-01-08T18:52:57.118Z,42.43
2023-01-08T18:55:26.278Z,43.57
2023-01-08T18:58:01.562Z,42.33
2023-01-08T19:00:37.429Z,41.30
2023-01-08T19:03:12.482Z,38.43
2023-01-08T19:06:14.070Z,41.90
2023-01-08T19:08:56.243Z,41.80
2023-01-08T19:11:40.101Z,45.23
2023-01-08T19:14:07.222Z,43.90
2023-01-08T19:16:43.682Z,40.97
2023-01-08T19:19:10.737Z,42.93
2023-01-08T19:21:37.878Z,45.13
2023-01-08T19:24:05.226Z,43.50
2023-01-08T19:26:32.175Z,45.63
2023-01-08T19:28:59.203Z,41.10
2023-01-08T19:31:26.225Z,45.27
2023-01-08T19:33:53.491Z,43.97
2023-01-08T19:36:21.183Z,43.60
2023-01-08T19:38:48.215Z,50.37
2023-01-08T19:41:33.564Z,43.33
2023-01-08T19:44:00.682Z,46.50
2023-01-08T19:46:28.443Z,44.30
2023-01-08T19:48:59.553Z,44.57
2023-01-08T19:51:26.929Z,44.70
2023-01-08T19:53:55.409Z,45.17
2023-01-08T19:56:22.749Z,47.90
2023-01-08T19:58:49.998Z,46.63
2023-01-08T20:01:22.482Z,47.20
2023-01-08T20:03:49.452Z,41.67
2023-01-08T20:06:19.974Z,44.53
2023-01-08T20:08:48.359Z,47.30
2023-01-08T20:11:19.324Z,45.30
2023-01-08T20:13:46.328Z,46.30
2023-01-08T20:16:16.370Z,45.83
2023-01-08T20:18:43.974Z,46.53
2023-01-08T20:21:15.434Z,47.87
2023-01-08T20:23:44.323Z,51.17
2023-01-08T20:26:14.662Z,49.03
2023-01-08T20:28:42.653Z,46.90
2023-01-08T20:31:15.296Z,54.00
2023-01-08T20:33:43.000Z,47.80
2023-01-08T20:36:18.064Z,46.93
2023-01-08T20:38:47.638Z,48.27
2023-01-08T20:41:14.963Z,49.60
2023-01-08T20:43:42.293Z,53.47
2023-01-08T20:46:10.449Z,53.80
2023-01-08T20:48:46.848Z,51.67
2023-01-08T20:51:18.915Z,46.90
2023-01-08T20:54:01.987Z,49.23
2023-01-08T20:56:32.171Z,48.10
2023-01-08T20:59:12.112Z,48.60
2023-01-08T21:01:41.252Z,51.53
2023-01-08T21:04:09.806Z,52.63
2023-01-08T21:06:36.794Z,55.90
2023-01-08T21:09:09.808Z,54.37
2023-01-08T21:11:39.007Z,54.23
2023-01-08T21:14:08.095Z,50.43
2023-01-08T21:16:36.545Z,48.70
2023-01-08T21:19:03.677Z,56.13
2023-01-08T21:21:33.932Z,53.80
2023-01-08T21:24:04.509Z,51.10
2023-01-08T21:26:33.932Z,52.20
2023-01-08T21:29:06.287Z,51.37
2023-01-08T21:31:33.744Z,51.40
2023-01-08T21:34:01.553Z,51.33
2023-01-08T21:36:31.395Z,57.67
2023-01-08T21:39:00.101Z,54.73
2023-01-08T21:41:47.100Z,55.93
2023-01-08T21:44:34.931Z,49.13
2023-01-08T21:47:03.543Z,53.37
2023-01-08T21:49:31.798Z,53.43
2023-01-08T21:52:17.660Z,52.23
2023-01-08T21:54:44.492Z,59.13
2023-01-08T21:57:14.468Z,53.27
2023-01-08T21:59:41.349Z,57.70
2023-01-08T22:02:14.084Z,54.30
2023-01-08T22:04:41.077Z,55.70
2023-01-08T22:07:08.017Z,55.03
2023-01-08T22:09:34.958Z,54.40
2023-01-08T22:12:01.836Z,53.87
2023-01-08T22:14:28.658Z,54.47
2023-01-08T22:16:57.712Z,52.67
2023-01-08T22:19:26.714Z,56.80
2023-01-08T22:21:53.545Z,52.43
2023-01-08T22:24:20.380Z,55.17
2023-01-08T22:26:48.667Z,49.93
2023-01-08T22:29:15.511Z,52.53
2023-01-08T22:31:42.443Z,57.47
2023-01-08T22:34:14.829Z,53.83
2023-01-08T22:36:53.643Z,54.23
2023-01-08T22:39:20.456Z,54.93
2023-01-08T22:41:47.350Z,52.77
2023-01-08T22:44:14.983Z,54.60
2023-01-08T22:46:50.549Z,54.13
2023-01-08T22:49:30.461Z,52.87
2023-01-08T22:52:00.515Z,52.47
2023-01-08T22:54:32.194Z,52.70
2023-01-08T22:57:02.537Z,51.40
2023-01-08T22:59:29.469Z,54.37
2023-01-08T23:01:56.557Z,53.77
2023-01-08T23:04:25.842Z,56.37
2023-01-08T23:06:52.934Z,48.57
2023-01-08T23:09:32.025Z,53.67
2023-01-08T23:12:01.646Z,55.60
2023-01-08T23:14:28.669Z,50.43
2023-01-08T23:16:55.485Z,52.33
2023-01-08T23:19:22.313Z,53.43
2023-01-08T23:21:52.218Z,54.10
2023-01-08T23:24:19.387Z,57.80
2023-01-08T23:26:46.336Z,55.13
2023-01-08T23:29:13.191Z,54.77
2023-01-08T23:31:40.471Z,52.87
2023-01-08T23:34:09.865Z,53.07
2023-01-08T23:36:36.814Z,53.80
2023-01-08T23:39:04.546Z,50.27
2023-01-08T23:41:35.084Z,55.73
2023-01-08T23:44:05.586Z,56.70
2023-01-08T23:46:32.827Z,46.67
2023-01-08T23:48:59.685Z,52.17
2023-01-08T23:51:31.932Z,52.30
2023-01-08T23:54:02.173Z,53.73
2023-01-08T23:56:32.264Z,48.57
2023-01-08T23:59:02.256Z,53.33
